Time;durP1;ratioP1;P1;durP2;ratioP2;P2;SDS_P1;SDS_P2;PMS_P1;PMS_P2;Temp;Humidity;BMP_temperature;BMP_pressure;BME280_temperature;BME280_humidity;BME280_pressure;Samples;Min_cycle;Max_cycle;Signal;HPM_P1;HPM_P2
2023/06/21 00:01:53;;;;;;;26.15;20.70;;;19.40;99.90;;;;;;5101353;28;20047;-62
2023/06/21 00:04:19;;;;;;;29.98;21.67;;;19.30;99.90;;;;;;5101926;28;20039;-61
2023/06/21 00:06:47;;;;;;;28.45;20.20;;;19.40;99.90;;;;;;5116303;27;20049;-62
2023/06/21 00:09:13;;;;;;;27.63;20.83;;;19.40;99.90;;;;;;5107948;27;20047;-61
2023/06/21 00:11:39;;;;;;;34.33;22.40;;;19.40;99.90;;;;;;5124298;27;20036;-62
2023/06/21 00:14:05;;;;;;;25.67;20.50;;;19.30;99.90;;;;;;5119261;27;20071;-62
2023/06/21 00:16:31;;;;;;;28.98;21.33;;;19.30;99.90;;;;;;5115914;28;20096;-61
2023/06/21 00:18:57;;;;;;;26.77;21.45;;;19.30;99.90;;;;;;5118513;27;20054;-62
2023/06/21 00:21:23;;;;;;;28.33;20.55;;;19.20;99.90;;;;;;5113718;27;20036;-61
2023/06/21 00:23:50;;;;;;;26.70;21.67;;;19.20;99.90;;;;;;5096151;28;20051;-62
2023/06/21 00:26:16;;;;;;;31.77;21.65;;;19.20;99.90;;;;;;5050586;27;20135;-61
2023/06/21 00:28:42;;;;;;;34.95;23.52;;;19.30;99.90;;;;;;5108550;27;20083;-61
2023/06/21 00:31:11;;;;;;;33.20;23.20;;;19.20;99.90;;;;;;5111334;27;20484;-61
2023/06/21 00:33:38;;;;;;;33.40;23.90;;;19.20;99.90;;;;;;5102610;27;20071;-62
2023/06/21 00:36:05;;;;;;;32.72;22.75;;;19.10;99.90;;;;;;5085967;28;20346;-61
2023/06/21 00:38:34;;;;;;;26.35;20.88;;;19.10;99.90;;;;;;5040370;28;20510;-61
2023/06/21 00:41:03;;;;;;;28.48;21.67;;;19.10;99.90;;;;;;5024131;28;20076;-62
2023/06/21 00:43:29;;;;;;;25.30;20.08;;;19.10;99.90;;;;;;5073643;27;20061;-61
2023/06/21 00:45:55;;;;;;;23.95;20.52;;;19.00;99.90;;;;;;5075518;28;20143;-62
2023/06/21 00:48:23;;;;;;;24.88;20.75;;;19.00;99.90;;;;;;5089092;27;20040;-62
2023/06/21 00:50:49;;;;;;;26.25;21.42;;;19.00;99.90;;;;;;5094071;28;20102;-61
2023/06/21 00:53:15;;;;;;;23.48;19.85;;;18.90;99.90;;;;;;5074499;28;20056;-62
2023/06/21 00:55:42;;;;;;;26.15;20.42;;;18.90;99.90;;;;;;5060498;28;20075;-62
2023/06/21 00:58:09;;;;;;;25.83;20.23;;;18.90;99.90;;;;;;5038267;28;20048;-62
2023/06/21 01:00:36;;;;;;;27.58;21.25;;;18.90;99.90;;;;;;5017936;28;20070;-61
2023/06/21 01:03:03;;;;;;;27.45;22.08;;;18.90;99.90;;;;;;5002262;28;20476;-61
2023/06/21 01:05:30;;;;;;;28.52;21.42;;;18.90;99.90;;;;;;4980654;28;20160;-61
2023/06/21 01:08:30;;;;;;;25.95;21.20;;;18.90;99.90;;;;;;5000507;28;20375;-62
2023/06/21 01:11:02;;;;;;;29.00;22.00;;;18.80;99.90;;;;;;5003560;28;20259;-62
2023/06/21 01:13:39;;;;;;;31.48;22.65;;;18.90;99.90;;;;;;5035466;28;20040;-62
2023/06/21 01:16:14;;;;;;;32.83;21.48;;;18.90;99.90;;;;;;5034570;28;20041;-61
2023/06/21 01:18:45;;;;;;;27.77;21.55;;;18.90;99.90;;;;;;5036684;28;20037;-62
2023/06/21 01:21:22;;;;;;;31.80;20.83;;;18.90;99.90;;;;;;4986011;28;20549;-62
2023/06/21 01:24:06;;;;;;;27.20;20.98;;;18.80;99.90;;;;;;5023340;28;20060;-61
2023/06/21 01:27:06;;;;;;;31.65;21.65;;;18.80;99.90;;;;;;5007760;28;20566;-62
2023/06/21 01:29:34;;;;;;;29.80;21.50;;;18.80;99.90;;;;;;5031015;28;20879;-61
2023/06/21 01:32:02;;;;;;;31.27;22.75;;;18.80;99.90;;;;;;5062753;28;20683;-62
2023/06/21 01:34:31;;;;;;;32.92;22.65;;;18.70;99.90;;;;;;5047305;28;21297;-62
2023/06/21 01:39:29;;;;;;;31.88;23.75;;;18.80;99.90;;;;;;5064609;28;33014;-62
2023/06/21 01:41:55;;;;;;;30.40;23.08;;;18.70;99.90;;;;;;5046301;28;30431;-62
2023/06/21 01:44:22;;;;;;;28.42;22.50;;;18.70;99.90;;;;;;5054508;28;30479;-62
2023/06/21 01:46:51;;;;;;;31.73;21.52;;;18.70;99.90;;;;;;5026221;28;24861;-62
2023/06/21 01:49:19;;;;;;;27.92;21.67;;;18.70;99.90;;;;;;5002985;28;24704;-62
2023/06/21 01:51:46;;;;;;;28.33;22.45;;;18.70;99.90;;;;;;4990924;28;24922;-62
2023/06/21 01:54:13;;;;;;;27.60;22.15;;;18.70;99.90;;;;;;5023382;28;24641;-62
2023/06/21 01:56:42;;;;;;;29.17;22.50;;;18.70;99.90;;;;;;4958928;28;32630;-62
2023/06/21 01:59:08;;;;;;;29.88;22.52;;;18.70;99.90;;;;;;4989865;28;24656;-62
2023/06/21 02:01:37;;;;;;;29.75;22.23;;;18.70;99.90;;;;;;5004556;28;24881;-62
2023/06/21 02:04:05;;;;;;;28.65;22.77;;;18.70;99.90;;;;;;4970607;28;25024;-62
2023/06/21 02:06:32;;;;;;;26.70;22.42;;;18.70;99.90;;;;;;4949273;28;24990;-62
2023/06/21 02:09:05;;;;;;;30.73;22.92;;;18.70;99.90;;;;;;5048054;28;24835;-62
2023/06/21 02:11:32;;;;;;;29.17;22.83;;;18.70;99.90;;;;;;5058786;27;24803;-62
2023/06/21 02:13:58;;;;;;;33.05;23.98;;;18.60;99.90;;;;;;5034332;28;32890;-62
2023/06/21 02:16:29;;;;;;;29.40;24.05;;;18.50;99.90;;;;;;5019633;28;25070;-62
2023/06/21 02:19:00;;;;;;;30.75;22.95;;;18.50;99.90;;;;;;4660104;29;32885;-62
2023/06/21 02:21:26;;;;;;;26.92;21.98;;;18.50;99.90;;;;;;4746736;29;23476;-62
2023/06/21 02:23:52;;;;;;;29.60;23.83;;;18.50;99.90;;;;;;4713549;29;26423;-62
2023/06/21 02:26:18;;;;;;;30.55;23.70;;;18.50;99.90;;;;;;4656781;30;23969;-62
2023/06/21 02:28:45;;;;;;;31.35;24.73;;;18.50;99.90;;;;;;4707503;30;24396;-62
2023/06/21 02:31:12;;;;;;;28.23;24.17;;;18.40;99.90;;;;;;4765828;29;24280;-62
2023/06/21 02:33:41;;;;;;;27.33;22.63;;;18.40;99.90;;;;;;4838070;29;24528;-62
2023/06/21 02:36:07;;;;;;;31.42;23.73;;;18.40;99.90;;;;;;4918768;28;24855;-62
2023/06/21 02:38:34;;;;;;;29.42;22.67;;;18.40;99.90;;;;;;4993739;28;30766;-62
2023/06/21 02:41:00;;;;;;;28.23;22.75;;;18.40;99.90;;;;;;4965971;28;24968;-62
2023/06/21 02:43:26;;;;;;;28.42;22.85;;;18.40;99.90;;;;;;4996790;28;24919;-61
2023/06/21 02:45:54;;;;;;;31.00;23.48;;;18.40;99.90;;;;;;4985461;28;31082;-62
2023/06/21 02:48:20;;;;;;;33.88;22.92;;;18.30;99.90;;;;;;5005157;28;31037;-62
2023/06/21 02:50:47;;;;;;;27.13;23.02;;;18.30;99.90;;;;;;4976545;28;24716;-62
2023/06/21 02:53:13;;;;;;;28.35;22.88;;;18.30;99.90;;;;;;4973777;28;24535;-62
2023/06/21 02:55:39;;;;;;;26.88;21.15;;;18.30;99.90;;;;;;5022527;28;24996;-61
2023/06/21 02:58:05;;;;;;;30.83;23.20;;;18.30;99.90;;;;;;5072375;27;32628;-61
2023/06/21 03:00:31;;;;;;;24.88;20.45;;;18.30;99.90;;;;;;4393121;28;15555960;-62
2023/06/21 03:03:01;;;;;;;32.83;24.30;;;18.30;99.90;;;;;;4808219;28;24839;-62
2023/06/21 03:05:33;;;;;;;38.88;25.45;;;18.20;99.90;;;;;;4965482;28;24703;-62
2023/06/21 03:08:01;;;;;;;30.67;23.30;;;18.20;99.90;;;;;;5080729;27;24855;-62
2023/06/21 03:10:30;;;;;;;31.70;24.73;;;18.20;99.90;;;;;;5060462;28;24755;-61
2023/06/21 03:12:56;;;;;;;30.65;25.80;;;18.20;99.90;;;;;;5041961;28;24985;-62
2023/06/21 03:15:24;;;;;;;31.10;25.38;;;18.20;99.90;;;;;;5030051;28;32636;-61
2023/06/21 03:17:50;;;;;;;33.72;25.38;;;18.20;99.90;;;;;;5028653;28;32908;-62
2023/06/21 03:20:16;;;;;;;33.88;24.92;;;18.20;99.90;;;;;;5018954;28;33776;-61
2023/06/21 03:22:45;;;;;;;29.23;23.58;;;18.20;99.90;;;;;;5015732;28;35439;-62
2023/06/21 03:25:12;;;;;;;38.20;25.38;;;18.20;99.90;;;;;;5019460;28;37309;-62
2023/06/21 03:27:40;;;;;;;36.30;25.30;;;18.20;99.90;;;;;;5024320;28;39262;-62
2023/06/21 03:30:12;;;;;;;34.15;25.02;;;18.20;99.90;;;;;;5010434;28;42409;-62
2023/06/21 03:32:47;;;;;;;31.45;24.85;;;18.20;99.90;;;;;;4934019;28;42673;-62
2023/06/21 03:35:16;;;;;;;32.78;23.65;;;18.20;99.90;;;;;;4992822;28;45429;-62
2023/06/21 03:37:42;;;;;;;33.47;24.00;;;18.20;99.90;;;;;;4994121;28;46938;-62
2023/06/21 03:40:13;;;;;;;29.95;24.02;;;18.30;99.90;;;;;;5001512;28;46998;-62
2023/06/21 03:42:45;;;;;;;28.77;23.42;;;18.30;99.90;;;;;;5003437;28;47205;-62
2023/06/21 03:45:12;;;;;;;32.42;23.60;;;18.20;99.90;;;;;;4992880;28;50124;-61
2023/06/21 03:47:40;;;;;;;34.90;24.13;;;18.30;99.90;;;;;;5002900;28;49956;-62
2023/06/21 03:50:07;;;;;;;30.13;23.85;;;18.20;99.90;;;;;;4950604;28;30402;-62
2023/06/21 03:52:35;;;;;;;31.10;23.52;;;18.30;99.90;;;;;;4981176;28;31550;-62
2023/06/21 03:55:04;;;;;;;29.75;23.65;;;18.30;99.90;;;;;;4978462;28;49891;-61
2023/06/21 03:57:31;;;;;;;30.10;23.52;;;18.40;99.90;;;;;;4997774;28;49816;-62
2023/06/21 03:59:57;;;;;;;33.67;23.92;;;18.40;99.90;;;;;;4939942;28;59455;-62
2023/06/21 04:02:24;;;;;;;35.65;25.73;;;18.40;99.90;;;;;;4989783;28;50085;-62
2023/06/21 04:04:50;;;;;;;29.02;24.67;;;18.50;99.90;;;;;;5035266;28;37072;-61
2023/06/21 04:07:21;;;;;;;32.97;24.63;;;18.50;99.90;;;;;;5032907;28;37242;-61
2023/06/21 04:09:48;;;;;;;33.38;26.02;;;18.60;99.90;;;;;;4989164;28;25159;-62
2023/06/21 04:12:15;;;;;;;34.90;25.08;;;18.70;99.90;;;;;;4999821;28;63535;-61
2023/06/21 04:14:41;;;;;;;33.70;24.70;;;18.70;99.90;;;;;;5009404;28;24801;-61
2023/06/21 04:17:07;;;;;;;32.60;24.90;;;18.80;99.90;;;;;;5017246;28;49059;-61
2023/06/21 04:19:33;;;;;;;36.15;25.10;;;18.90;99.90;;;;;;4990924;28;49339;-61
2023/06/21 04:21:59;;;;;;;47.53;26.10;;;19.00;99.90;;;;;;4973019;28;41738;-62
2023/06/21 04:24:26;;;;;;;51.60;26.48;;;19.00;99.90;;;;;;4978934;28;49477;-61
2023/06/21 04:26:53;;;;;;;52.45;25.73;;;19.00;99.90;;;;;;5007305;28;43054;-62
2023/06/21 04:29:20;;;;;;;44.25;26.25;;;19.00;99.90;;;;;;4995212;28;38978;-61
2023/06/21 04:31:46;;;;;;;37.08;24.92;;;19.00;99.90;;;;;;4984545;28;48714;-61
2023/06/21 04:34:12;;;;;;;32.88;24.13;;;19.10;99.90;;;;;;4984823;28;49043;-61
2023/06/21 04:36:38;;;;;;;32.03;24.27;;;19.20;99.90;;;;;;4987833;28;48992;-61
2023/06/21 04:39:05;;;;;;;34.17;24.95;;;19.20;99.90;;;;;;4999815;28;48862;-61
2023/06/21 04:41:31;;;;;;;37.30;24.45;;;19.30;99.90;;;;;;5017773;28;45758;-61
2023/06/21 04:43:57;;;;;;;32.28;24.77;;;19.40;99.90;;;;;;5049052;28;49648;-61
2023/06/21 04:46:23;;;;;;;35.38;24.08;;;19.50;99.90;;;;;;5040197;28;25196;-61
2023/06/21 04:48:50;;;;;;;39.60;24.65;;;19.60;99.90;;;;;;5046683;28;24841;-62
2023/06/21 04:51:17;;;;;;;32.33;22.83;;;19.70;99.90;;;;;;5039658;28;25145;-61
2023/06/21 04:53:44;;;;;;;36.15;23.35;;;19.80;99.90;;;;;;5049566;28;49444;-61
2023/06/21 04:56:12;;;;;;;30.35;24.77;;;19.90;99.90;;;;;;5045238;27;49114;-61
2023/06/21 04:58:39;;;;;;;33.63;24.35;;;19.90;99.90;;;;;;4992631;28;49272;-61
2023/06/21 05:01:08;;;;;;;33.92;27.00;;;20.00;99.90;;;;;;4996850;28;48789;-61
2023/06/21 05:03:34;;;;;;;32.67;25.60;;;20.10;99.90;;;;;;4985991;28;48803;-61
2023/06/21 05:06:00;;;;;;;33.83;25.88;;;20.30;99.90;;;;;;5001291;28;49704;-61
2023/06/21 05:08:26;;;;;;;32.05;25.40;;;20.30;99.90;;;;;;4979530;28;49732;-61
2023/06/21 05:10:53;;;;;;;34.83;26.33;;;20.50;99.90;;;;;;4909978;28;49359;-61
2023/06/21 05:13:20;;;;;;;31.58;25.70;;;20.60;99.90;;;;;;4867305;28;50424;-61
2023/06/21 05:15:46;;;;;;;34.63;25.75;;;20.70;99.90;;;;;;4868258;28;48517;-61
2023/06/21 05:18:12;;;;;;;34.50;26.15;;;20.80;99.90;;;;;;4883970;28;49217;-62
2023/06/21 05:20:38;;;;;;;36.78;27.15;;;20.90;99.90;;;;;;4916414;28;49812;-61
2023/06/21 05:23:46;;;;;;;35.25;25.63;;;21.00;99.90;;;;;;4887359;28;50038;-62
2023/06/21 05:28:57;;;;;;;31.85;23.70;;;21.10;99.90;;;;;;5129346;27;20873;-62
2023/06/21 05:31:23;;;;;;;34.10;24.30;;;21.20;99.90;;;;;;4959158;28;2114523;-62
2023/06/21 05:33:49;;;;;;;33.50;26.63;;;21.40;99.90;;;;;;5000572;28;20473;-62
2023/06/21 05:36:15;;;;;;;45.15;30.15;;;21.40;99.90;;;;;;5006884;28;20113;-62
2023/06/21 05:38:41;;;;;;;51.05;33.55;;;21.50;99.90;;;;;;4957698;28;20046;-62
2023/06/21 05:41:07;;;;;;;52.72;31.48;;;21.60;99.90;;;;;;4989336;28;22462;-62
2023/06/21 05:43:33;;;;;;;44.20;28.92;;;21.80;99.90;;;;;;5005838;28;20046;-62
2023/06/21 05:46:02;;;;;;;43.58;29.75;;;21.90;99.90;;;;;;4999559;28;20121;-62
2023/06/21 05:48:32;;;;;;;41.70;29.95;;;22.00;99.90;;;;;;4984452;28;20053;-62
2023/06/21 05:50:58;;;;;;;49.38;31.75;;;22.00;99.90;;;;;;4981735;28;20041;-62
2023/06/21 05:53:25;;;;;;;39.17;29.85;;;22.10;99.90;;;;;;4996091;28;20063;-61
2023/06/21 05:55:51;;;;;;;45.50;28.75;;;22.20;99.90;;;;;;5019140;28;20038;-62
2023/06/21 05:58:20;;;;;;;39.65;26.88;;;22.30;99.90;;;;;;5020438;28;20495;-62
2023/06/21 06:00:48;;;;;;;43.67;27.85;;;22.30;99.90;;;;;;5000577;28;20046;-62
2023/06/21 06:03:14;;;;;;;53.80;29.08;;;22.40;99.90;;;;;;4979660;28;20042;-62
2023/06/21 06:05:40;;;;;;;37.42;26.98;;;22.60;99.90;;;;;;4993490;28;20760;-62
2023/06/21 06:08:06;;;;;;;45.85;26.33;;;22.80;99.90;;;;;;4989311;28;20133;-62
2023/06/21 06:10:32;;;;;;;35.83;25.30;;;22.80;99.90;;;;;;4972313;28;20058;-62
2023/06/21 06:12:58;;;;;;;31.95;24.25;;;23.00;99.90;;;;;;4984455;28;20073;-62
2023/06/21 06:15:24;;;;;;;34.42;24.60;;;23.10;99.90;;;;;;4991142;28;20057;-62
2023/06/21 06:17:50;;;;;;;36.50;24.85;;;23.30;99.90;;;;;;4964005;28;20488;-62
2023/06/21 06:20:17;;;;;;;32.38;24.60;;;23.40;99.90;;;;;;4941731;28;20040;-62
2023/06/21 06:22:43;;;;;;;33.17;23.55;;;23.40;99.90;;;;;;4957229;28;20046;-62
2023/06/21 06:25:10;;;;;;;35.53;23.55;;;23.60;99.90;;;;;;4968865;28;20040;-62
2023/06/21 06:27:36;;;;;;;31.85;23.95;;;23.80;99.90;;;;;;4980089;28;20042;-62
2023/06/21 06:30:12;;;;;;;30.55;22.60;;;23.80;99.90;;;;;;4890585;28;20455;-62
2023/06/21 06:32:38;;;;;;;35.13;23.23;;;24.00;99.90;;;;;;4920239;28;20044;-62
2023/06/21 06:35:06;;;;;;;34.55;22.58;;;24.10;99.90;;;;;;4974168;28;20038;-62
2023/06/21 06:37:32;;;;;;;33.15;21.80;;;24.10;99.90;;;;;;5001224;28;20038;-62
2023/06/21 06:39:59;;;;;;;29.33;21.67;;;24.20;99.90;;;;;;4964838;28;21697;-62
2023/06/21 06:42:25;;;;;;;32.17;22.55;;;24.40;99.90;;;;;;4971216;28;20155;-62
2023/06/21 06:44:52;;;;;;;28.85;21.90;;;24.50;99.90;;;;;;4973339;28;20082;-62
2023/06/21 06:47:19;;;;;;;32.15;21.85;;;24.70;99.90;;;;;;4957993;28;20049;-62
2023/06/21 06:49:45;;;;;;;28.05;22.73;;;25.00;99.90;;;;;;4941426;28;20043;-62
2023/06/21 06:52:14;;;;;;;32.10;25.08;;;25.10;99.90;;;;;;4964865;28;20530;-62
2023/06/21 06:54:40;;;;;;;31.35;22.27;;;25.20;99.90;;;;;;4972360;28;20601;-62
2023/06/21 06:57:06;;;;;;;30.02;21.33;;;25.30;99.90;;;;;;4953939;28;20051;-63
2023/06/21 06:59:32;;;;;;;31.92;22.33;;;25.50;99.90;;;;;;4941631;28;20051;-63
2023/06/21 07:01:58;;;;;;;32.20;21.33;;;25.70;99.90;;;;;;4956097;28;20057;-63
2023/06/21 07:04:25;;;;;;;30.98;20.88;;;25.90;99.90;;;;;;4967799;28;20151;-63
2023/06/21 07:06:51;;;;;;;21.95;19.35;;;26.10;99.90;;;;;;4953523;28;22463;-63
2023/06/21 07:09:17;;;;;;;27.65;20.48;;;26.00;99.90;;;;;;4935807;28;22570;-63
2023/06/21 07:11:43;;;;;;;27.10;19.45;;;26.40;99.90;;;;;;4948868;28;22728;-63
2023/06/21 07:14:09;;;;;;;25.63;19.15;;;26.70;99.90;;;;;;4960318;28;24422;-63
2023/06/21 07:16:40;;;;;;;22.73;19.48;;;26.70;99.90;;;;;;4989698;28;24218;-63
2023/06/21 07:19:06;;;;;;;25.13;19.83;;;26.80;99.90;;;;;;4988695;28;24735;-63
2023/06/21 07:21:32;;;;;;;30.35;19.88;;;27.10;99.90;;;;;;4967875;28;26982;-63
2023/06/21 07:23:58;;;;;;;24.23;19.65;;;27.40;99.90;;;;;;4948594;28;26836;-63
2023/06/21 07:26:31;;;;;;;36.25;20.80;;;27.30;98.90;;;;;;4932021;28;25122;-63
2023/06/21 07:29:02;;;;;;;28.38;19.45;;;27.50;99.30;;;;;;4909545;28;30073;-63
2023/06/21 07:31:28;;;;;;;34.83;20.50;;;27.70;99.90;;;;;;4915389;28;25009;-63
2023/06/21 07:33:57;;;;;;;21.35;18.15;;;27.80;99.30;;;;;;4891943;28;31553;-63
2023/06/21 07:36:28;;;;;;;37.50;19.35;;;27.90;99.90;;;;;;4907352;28;32274;-63
2023/06/21 07:39:07;;;;;;;33.55;19.42;;;28.20;99.40;;;;;;4877646;28;32554;-63
2023/06/21 07:41:33;;;;;;;23.80;17.90;;;28.40;98.60;;;;;;4821051;29;35291;-63
2023/06/21 07:44:00;;;;;;;23.13;17.48;;;28.20;96.20;;;;;;4831448;29;35947;-63
2023/06/21 07:46:26;;;;;;;31.40;17.52;;;28.40;95.60;;;;;;4794706;29;37471;-63
2023/06/21 07:48:52;;;;;;;25.02;17.50;;;28.40;91.40;;;;;;4871488;28;24914;-63
2023/06/21 07:51:18;;;;;;;29.63;17.45;;;28.80;92.40;;;;;;4630377;28;24121;-63
2023/06/21 07:53:44;;;;;;;28.42;17.90;;;29.00;94.30;;;;;;4762743;29;20436;-63
2023/06/21 07:56:14;;;;;;;28.08;19.58;;;28.80;88.50;;;;;;4728762;29;20464;-63
2023/06/21 07:58:42;;;;;;;31.08;18.92;;;28.60;90.60;;;;;;4727084;30;20273;-63
2023/06/21 08:01:09;;;;;;;32.83;18.08;;;29.10;90.90;;;;;;4707553;30;20531;-63
2023/06/21 08:03:35;;;;;;;28.58;17.58;;;29.20;89.20;;;;;;4716797;29;20273;-63
2023/06/21 08:06:01;;;;;;;25.17;18.27;;;29.50;90.50;;;;;;4732617;29;20088;-63
2023/06/21 08:08:30;;;;;;;33.55;19.25;;;29.50;94.30;;;;;;4633540;30;22103;-63
2023/06/21 08:10:57;;;;;;;34.72;19.02;;;29.80;94.20;;;;;;4571370;30;22675;-63
2023/06/21 08:13:23;;;;;;;34.33;18.98;;;29.90;92.10;;;;;;4609862;30;23501;-63
2023/06/21 08:15:53;;;;;;;34.88;18.35;;;29.90;91.70;;;;;;4704195;29;24387;-63
2023/06/21 08:18:19;;;;;;;27.90;17.20;;;30.30;93.10;;;;;;4819350;29;34967;-63
2023/06/21 08:20:45;;;;;;;24.10;17.23;;;30.10;87.60;;;;;;4800380;29;35979;-63
2023/06/21 08:23:11;;;;;;;35.35;17.65;;;30.10;84.40;;;;;;4858282;29;37380;-63
2023/06/21 08:25:37;;;;;;;32.42;19.23;;;30.00;83.10;;;;;;4914819;28;38041;-63
2023/06/21 08:28:04;;;;;;;41.65;18.35;;;30.00;80.00;;;;;;4834661;29;38890;-63
2023/06/21 08:30:31;;;;;;;39.88;17.27;;;30.20;82.90;;;;;;4794465;29;41604;-63
2023/06/21 08:32:57;;;;;;;30.25;17.77;;;30.40;84.50;;;;;;4862880;28;41882;-63
2023/06/21 08:35:23;;;;;;;32.47;16.60;;;30.60;82.80;;;;;;4914344;28;43516;-63
2023/06/21 08:37:59;;;;;;;30.85;17.58;;;30.50;78.70;;;;;;4943089;28;45390;-63
2023/06/21 08:40:27;;;;;;;29.70;16.25;;;30.80;83.40;;;;;;4869339;29;47855;-63
2023/06/21 08:42:54;;;;;;;24.60;15.90;;;31.20;84.30;;;;;;4908962;28;52422;-63
2023/06/21 08:45:23;;;;;;;31.88;16.95;;;31.20;78.80;;;;;;4895754;28;53914;-63
2023/06/21 08:47:53;;;;;;;20.88;14.80;;;31.50;80.90;;;;;;4818992;29;56303;-64
2023/06/21 08:50:20;;;;;;;;;;;31.50;80.60;;;;;;4766150;29;57712;-63
2023/06/21 08:52:48;;;;;;;17.90;14.02;;;31.60;76.40;;;;;;4798477;29;49073;-64
2023/06/21 08:55:18;;;;;;;25.85;16.42;;;31.50;74.40;;;;;;4909995;28;24660;-64
2023/06/21 08:57:50;;;;;;;20.23;14.43;;;31.50;75.60;;;;;;4932287;28;34357;-64
2023/06/21 09:00:24;;;;;;;29.67;16.63;;;31.30;77.10;;;;;;4912850;28;49341;-63
2023/06/21 09:02:56;;;;;;;17.30;13.98;;;31.50;72.30;;;;;;4886709;29;34521;-64
2023/06/21 09:05:31;;;;;;;18.15;13.75;;;31.70;73.40;;;;;;4877965;28;49392;-63
2023/06/21 09:07:59;;;;;;;18.10;13.73;;;31.80;72.50;;;;;;4947352;28;55707;-63
2023/06/21 09:10:27;;;;;;;23.77;15.93;;;32.00;69.30;;;;;;4947565;28;53984;-63
2023/06/21 09:12:59;;;;;;;24.33;15.30;;;32.20;73.70;;;;;;4949649;28;49897;-63
2023/06/21 09:15:26;;;;;;;28.90;15.00;;;32.50;75.20;;;;;;4952399;28;32301;-63
2023/06/21 09:17:54;;;;;;;22.08;15.35;;;32.90;74.80;;;;;;4966520;28;25015;-63
2023/06/21 09:20:27;;;;;;;19.23;15.40;;;32.80;67.30;;;;;;4951549;28;24942;-63
2023/06/21 09:22:55;;;;;;;18.08;14.88;;;32.90;71.50;;;;;;4933438;28;24636;-63
2023/06/21 09:25:21;;;;;;;15.00;13.32;;;32.90;72.50;;;;;;4849494;28;48869;-63
2023/06/21 09:27:48;;;;;;;15.90;13.88;;;32.90;64.90;;;;;;4819619;29;58749;-63
2023/06/21 09:30:14;;;;;;;16.35;13.60;;;32.40;65.60;;;;;;4863723;28;24934;-63
2023/06/21 09:32:41;;;;;;;15.98;14.25;;;32.60;70.60;;;;;;4907961;28;24899;-63
2023/06/21 09:35:08;;;;;;;17.58;13.65;;;32.50;69.50;;;;;;4901786;28;36757;-63
2023/06/21 09:37:36;;;;;;;19.15;13.50;;;32.50;72.90;;;;;;4873972;28;37759;-63
2023/06/21 09:40:03;;;;;;;15.43;13.45;;;32.50;68.30;;;;;;4892014;28;24943;-63
2023/06/21 09:42:29;;;;;;;18.27;13.38;;;32.70;70.70;;;;;;4891690;28;24698;-63
2023/06/21 09:45:04;;;;;;;18.92;13.25;;;32.90;67.00;;;;;;4906394;28;24969;-63
2023/06/21 09:47:32;;;;;;;20.75;13.40;;;32.90;66.10;;;;;;4956505;28;24665;-63
2023/06/21 09:49:58;;;;;;;15.57;13.40;;;33.20;68.20;;;;;;4943038;28;48478;-63
2023/06/21 09:52:24;;;;;;;20.05;13.45;;;33.50;66.60;;;;;;4904957;28;48861;-63
2023/06/21 09:54:51;;;;;;;17.65;12.52;;;33.70;68.80;;;;;;4888839;28;48938;-63
2023/06/21 09:57:17;;;;;;;18.17;12.45;;;34.00;63.40;;;;;;4850875;29;49339;-63
2023/06/21 09:59:48;;;;;;;14.57;11.18;;;34.30;63.00;;;;;;4888695;28;40443;-63
2023/06/21 10:02:14;;;;;;;10.98;9.38;;;34.50;58.70;;;;;;4887699;28;24815;-63
2023/06/21 10:04:41;;;;;;;13.77;10.32;;;34.30;52.10;;;;;;4913906;28;24752;-63
2023/06/21 10:07:08;;;;;;;14.07;9.85;;;34.40;59.10;;;;;;4906637;28;46507;-63
2023/06/21 10:09:37;;;;;;;12.98;9.73;;;34.50;55.50;;;;;;4873371;28;24545;-63
2023/06/21 10:12:11;;;;;;;13.95;9.65;;;34.70;55.80;;;;;;4812434;29;25477;-63
2023/06/21 10:14:39;;;;;;;13.30;9.75;;;34.50;52.50;;;;;;4869267;28;24561;-63
2023/06/21 10:17:05;;;;;;;17.75;10.27;;;34.40;54.20;;;;;;4873418;28;24651;-63
2023/06/21 10:19:32;;;;;;;15.32;11.10;;;34.60;54.20;;;;;;4870902;28;45027;-63
2023/06/21 10:22:17;;;;;;;14.00;11.25;;;34.90;54.80;;;;;;4893452;28;49493;-63
2023/06/21 10:24:48;;;;;;;19.60;12.05;;;35.20;52.00;;;;;;4861453;28;46658;-63
2023/06/21 10:27:16;;;;;;;15.98;11.10;;;35.30;55.00;;;;;;4882964;28;24958;-63
2023/06/21 10:29:44;;;;;;;18.33;11.43;;;35.80;53.00;;;;;;4912334;28;47409;-63
2023/06/21 10:32:10;;;;;;;15.02;10.95;;;36.00;54.30;;;;;;4878442;28;24786;-63
2023/06/21 10:35:03;;;;;;;12.98;10.55;;;36.50;55.90;;;;;;4890699;28;27739;-63
2023/06/21 10:37:48;;;;;;;13.82;9.75;;;36.30;47.60;;;;;;4857073;28;24819;-63
2023/06/21 10:40:22;;;;;;;13.48;10.18;;;35.60;48.40;;;;;;4815764;29;48634;-62
2023/06/21 10:42:50;;;;;;;10.77;7.95;;;36.10;48.00;;;;;;4880226;28;47252;-62
2023/06/21 10:45:16;;;;;;;13.88;7.82;;;36.30;43.40;;;;;;4884688;28;48581;-62
2023/06/21 10:47:43;;;;;;;11.25;7.50;;;36.50;48.40;;;;;;4885720;28;48863;-62
2023/06/21 10:50:11;;;;;;;14.43;7.40;;;36.50;46.20;;;;;;4870852;28;49718;-62
2023/06/21 10:52:37;;;;;;;10.65;6.43;;;36.60;44.10;;;;;;4915953;28;48758;-62
2023/06/21 10:55:07;;;;;;;11.77;7.18;;;36.50;42.00;;;;;;4896723;28;55857;-62
2023/06/21 10:57:33;;;;;;;;;;;36.70;43.60;;;;;;4884344;28;56314;-62
2023/06/21 11:00:06;;;;;;;12.60;7.15;;;37.00;43.60;;;;;;4900894;28;49869;-62
2023/06/21 11:05:40;;;;;;;12.18;7.20;;;37.40;42.90;;;;;;4965964;27;5046261;-62
2023/06/21 11:08:08;;;;;;;12.10;7.40;;;36.60;43.50;;;;;;5085280;28;20117;-62
2023/06/21 11:10:51;;;;;;;9.30;6.63;;;36.70;44.50;;;;;;5069870;28;20421;-61
2023/06/21 11:13:32;;;;;;;10.48;6.63;;;36.30;38.90;;;;;;5035137;28;20064;-62
2023/06/21 11:16:16;;;;;;;9.93;6.50;;;36.60;39.60;;;;;;5046100;28;20079;-62
2023/06/21 11:18:57;;;;;;;15.07;6.57;;;36.60;41.50;;;;;;5021275;28;20074;-62
2023/06/21 11:21:44;;;;;;;12.10;7.03;;;36.60;41.80;;;;;;5007666;28;20116;-62
2023/06/21 11:24:12;;;;;;;10.43;6.55;;;36.80;45.60;;;;;;5030890;28;20053;-62
2023/06/21 11:27:01;;;;;;;10.05;6.90;;;36.30;39.70;;;;;;5061284;28;20047;-62
2023/06/21 11:29:40;;;;;;;12.10;7.47;;;36.40;38.30;;;;;;5046391;28;20049;-62
2023/06/21 11:32:16;;;;;;;8.80;7.10;;;36.00;37.80;;;;;;5021236;28;20048;-61
2023/06/21 11:34:56;;;;;;;11.35;7.25;;;35.60;38.10;;;;;;5014658;28;20419;-62
2023/06/21 11:37:34;;;;;;;14.93;7.53;;;36.50;42.50;;;;;;5023978;28;20052;-62
2023/06/21 11:40:07;;;;;;;8.80;6.50;;;37.20;40.80;;;;;;5042063;28;20044;-62
2023/06/21 11:42:36;;;;;;;11.38;7.13;;;37.30;44.50;;;;;;4965072;28;20031;-62
2023/06/21 11:45:22;;;;;;;10.63;7.07;;;37.50;40.10;;;;;;4950273;28;20074;-62
2023/06/21 11:48:14;;;;;;;10.43;6.88;;;37.90;42.50;;;;;;4950391;28;20063;-62
2023/06/21 11:50:45;;;;;;;11.23;8.15;;;37.70;36.80;;;;;;4955149;28;20121;-62
2023/06/21 11:53:23;;;;;;;9.15;7.30;;;37.10;41.30;;;;;;4990484;28;20395;-62
2023/06/21 11:55:58;;;;;;;12.50;7.95;;;37.00;40.80;;;;;;5020689;28;20053;-62
2023/06/21 11:58:25;;;;;;;8.07;6.57;;;37.40;40.50;;;;;;5051114;28;31491;-62
2023/06/21 12:00:52;;;;;;;10.40;7.43;;;36.90;37.20;;;;;;5051161;28;20077;-62
2023/06/21 12:03:21;;;;;;;12.30;7.75;;;37.00;39.40;;;;;;5015705;28;20079;-62
2023/06/21 12:06:00;;;;;;;10.70;7.27;;;37.30;44.90;;;;;;5016894;28;20137;-61
2023/06/21 12:08:29;;;;;;;7.53;6.57;;;37.70;38.20;;;;;;4993321;28;20099;-62
2023/06/21 12:10:59;;;;;;;14.77;8.02;;;37.70;37.50;;;;;;5003105;28;23643;-62
2023/06/21 12:13:27;;;;;;;10.23;7.47;;;37.50;38.20;;;;;;4975194;28;20198;-62
2023/06/21 12:15:54;;;;;;;12.15;8.13;;;37.50;39.90;;;;;;4985387;28;20566;-62
2023/06/21 12:18:25;;;;;;;16.23;8.40;;;37.30;40.80;;;;;;5014280;28;20060;-62
2023/06/21 12:20:58;;;;;;;19.15;8.88;;;37.50;41.70;;;;;;5001062;28;20410;-62
2023/06/21 12:23:29;;;;;;;16.85;8.38;;;37.10;41.40;;;;;;4980711;28;20105;-62
2023/06/21 12:26:01;;;;;;;21.02;9.10;;;37.20;39.90;;;;;;5014391;28;20049;-62
2023/06/21 12:28:31;;;;;;;16.85;8.70;;;37.30;40.00;;;;;;4975046;28;20975;-61
2023/06/21 12:31:05;;;;;;;12.80;8.27;;;37.00;40.00;;;;;;4764342;28;20481;-62
2023/06/21 12:33:40;;;;;;;12.10;8.93;;;35.50;41.60;;;;;;4948898;28;20069;-62
2023/06/21 12:36:33;;;;;;;18.90;10.20;;;36.00;49.80;;;;;;4990822;28;20051;-62
2023/06/21 12:39:04;;;;;;;12.15;8.98;;;35.80;40.60;;;;;;4994404;28;20116;-62
2023/06/21 12:41:32;;;;;;;10.65;8.13;;;36.30;41.80;;;;;;5023486;28;20037;-62
2023/06/21 12:43:59;;;;;;;16.70;8.93;;;36.70;40.20;;;;;;5027784;28;20123;-62
2023/06/21 12:46:27;;;;;;;12.10;8.10;;;36.30;40.50;;;;;;5006125;28;20173;-62